sensor_id;sensor_type;location;lat;lon;timestamp;temperature;humidity
42913;DHT22;50720;54.324;18.558;2022-12-04T00:01:09;-1.50;99.90
42913;DHT22;50720;54.324;18.558;2022-12-04T00:03:39;-1.40;99.90
42913;DHT22;50720;54.324;18.558;2022-12-04T00:06:14;-1.50;99.90
42913;DHT22;50720;54.324;18.558;2022-12-04T00:08:45;-1.50;99.90
42913;DHT22;50720;54.324;18.558;2022-12-04T00:11:18;-1.40;99.90
42913;DHT22;50720;54.324;18.558;2022-12-04T00:13:48;-1.40;99.90
42913;DHT22;50720;54.324;18.558;2022-12-04T00:16:21;-1.40;99.90
42913;DHT22;50720;54.324;18.558;2022-12-04T00:18:51;-1.40;99.90
42913;DHT22;50720;54.324;18.558;2022-12-04T00:21:21;-1.40;99.90
42913;DHT22;50720;54.324;18.558;2022-12-04T00:23:52;-1.40;99.90
42913;DHT22;50720;54.324;18.558;2022-12-04T00:26:25;-1.40;99.90
42913;DHT22;50720;54.324;18.558;2022-12-04T00:28:55;-1.40;99.90
42913;DHT22;50720;54.324;18.558;2022-12-04T00:31:27;-1.40;99.90
42913;DHT22;50720;54.324;18.558;2022-12-04T00:33:58;-1.40;99.90
42913;DHT22;50720;54.324;18.558;2022-12-04T00:36:29;-1.30;99.90
42913;DHT22;50720;54.324;18.558;2022-12-04T00:39:00;-1.40;99.90
42913;DHT22;50720;54.324;18.558;2022-12-04T00:41:33;-1.30;99.90
42913;DHT22;50720;54.324;18.558;2022-12-04T00:44:03;-1.30;99.90
42913;DHT22;50720;54.324;18.558;2022-12-04T00:46:33;-1.30;99.90
42913;DHT22;50720;54.324;18.558;2022-12-04T00:49:02;-1.30;99.90
42913;DHT22;50720;54.324;18.558;2022-12-04T00:51:32;-1.30;99.90
42913;DHT22;50720;54.324;18.558;2022-12-04T00:54:02;-1.20;99.90
42913;DHT22;50720;54.324;18.558;2022-12-04T00:56:33;-1.30;99.90
42913;DHT22;50720;54.324;18.558;2022-12-04T00:59:03;-1.20;99.90
42913;DHT22;50720;54.324;18.558;2022-12-04T01:01:33;-1.20;99.90
42913;DHT22;50720;54.324;18.558;2022-12-04T01:04:03;-1.30;99.90
42913;DHT22;50720;54.324;18.558;2022-12-04T01:06:33;-1.30;99.90
42913;DHT22;50720;54.324;18.558;2022-12-04T01:09:04;-1.20;99.90
42913;DHT22;50720;54.324;18.558;2022-12-04T01:11:36;-1.20;99.90
42913;DHT22;50720;54.324;18.558;2022-12-04T01:14:06;-1.20;99.90
42913;DHT22;50720;54.324;18.558;2022-12-04T01:16:37;-1.20;99.90
42913;DHT22;50720;54.324;18.558;2022-12-04T01:19:09;-1.20;99.90
42913;DHT22;50720;54.324;18.558;2022-12-04T01:21:40;-1.20;99.90
42913;DHT22;50720;54.324;18.558;2022-12-04T01:24:09;-1.20;99.90
42913;DHT22;50720;54.324;18.558;2022-12-04T01:26:41;-1.10;99.90
42913;DHT22;50720;54.324;18.558;2022-12-04T01:29:10;-1.10;99.90
42913;DHT22;50720;54.324;18.558;2022-12-04T01:31:40;-1.10;99.90
42913;DHT22;50720;54.324;18.558;2022-12-04T01:34:10;-1.10;99.90
42913;DHT22;50720;54.324;18.558;2022-12-04T01:36:39;-1.10;99.90
42913;DHT22;50720;54.324;18.558;2022-12-04T01:39:11;-1.10;99.90
42913;DHT22;50720;54.324;18.558;2022-12-04T01:41:46;-1.10;99.90
42913;DHT22;50720;54.324;18.558;2022-12-04T01:44:16;-1.00;99.90
42913;DHT22;50720;54.324;18.558;2022-12-04T01:46:50;-1.10;99.90
42913;DHT22;50720;54.324;18.558;2022-12-04T01:49:24;-1.10;99.90
42913;DHT22;50720;54.324;18.558;2022-12-04T01:51:57;-1.10;99.90
42913;DHT22;50720;54.324;18.558;2022-12-04T01:54:29;-1.10;99.90
42913;DHT22;50720;54.324;18.558;2022-12-04T01:57:06;-1.10;99.90
42913;DHT22;50720;54.324;18.558;2022-12-04T01:59:42;-1.00;99.90
42913;DHT22;50720;54.324;18.558;2022-12-04T02:02:16;-1.00;99.90
42913;DHT22;50720;54.324;18.558;2022-12-04T02:04:49;-1.00;99.90
42913;DHT22;50720;54.324;18.558;2022-12-04T02:07:19;-1.00;99.90
42913;DHT22;50720;54.324;18.558;2022-12-04T02:09:49;-1.00;99.90
42913;DHT22;50720;54.324;18.558;2022-12-04T02:12:33;-1.00;99.90
42913;DHT22;50720;54.324;18.558;2022-12-04T02:15:08;-0.90;99.90
42913;DHT22;50720;54.324;18.558;2022-12-04T02:17:45;-0.90;99.90
42913;DHT22;50720;54.324;18.558;2022-12-04T02:20:24;-0.90;99.90
42913;DHT22;50720;54.324;18.558;2022-12-04T02:23:34;-0.90;99.90
42913;DHT22;50720;54.324;18.558;2022-12-04T02:26:18;-0.90;99.90
42913;DHT22;50720;54.324;18.558;2022-12-04T02:29:00;-0.80;99.90
42913;DHT22;50720;54.324;18.558;2022-12-04T02:31:33;-0.80;99.90
42913;DHT22;50720;54.324;18.558;2022-12-04T02:34:08;-0.80;99.90
42913;DHT22;50720;54.324;18.558;2022-12-04T02:36:44;-0.80;99.90
42913;DHT22;50720;54.324;18.558;2022-12-04T02:39:30;-0.80;99.90
42913;DHT22;50720;54.324;18.558;2022-12-04T02:42:05;-0.80;99.90
42913;DHT22;50720;54.324;18.558;2022-12-04T02:44:40;-0.80;99.90
42913;DHT22;50720;54.324;18.558;2022-12-04T02:47:12;-0.80;99.90
42913;DHT22;50720;54.324;18.558;2022-12-04T02:49:45;-0.70;99.90
42913;DHT22;50720;54.324;18.558;2022-12-04T02:52:17;-0.70;99.90
42913;DHT22;50720;54.324;18.558;2022-12-04T02:54:52;-0.70;99.90
42913;DHT22;50720;54.324;18.558;2022-12-04T02:57:25;-0.70;99.90
42913;DHT22;50720;54.324;18.558;2022-12-04T02:59:59;-0.60;99.90
42913;DHT22;50720;54.324;18.558;2022-12-04T03:02:38;-0.70;99.90
42913;DHT22;50720;54.324;18.558;2022-12-04T03:05:14;-0.60;99.90
42913;DHT22;50720;54.324;18.558;2022-12-04T03:07:46;-0.60;99.90
42913;DHT22;50720;54.324;18.558;2022-12-04T03:10:20;-0.60;99.90
42913;DHT22;50720;54.324;18.558;2022-12-04T03:12:53;-0.60;99.90
42913;DHT22;50720;54.324;18.558;2022-12-04T03:15:30;-0.60;99.90
42913;DHT22;50720;54.324;18.558;2022-12-04T03:18:03;-0.60;99.90
42913;DHT22;50720;54.324;18.558;2022-12-04T03:20:36;-0.60;99.90
42913;DHT22;50720;54.324;18.558;2022-12-04T03:23:10;-0.60;99.90
42913;DHT22;50720;54.324;18.558;2022-12-04T03:25:45;-0.50;99.90
42913;DHT22;50720;54.324;18.558;2022-12-04T03:28:21;-0.50;99.90
42913;DHT22;50720;54.324;18.558;2022-12-04T03:30:59;-0.50;99.90
42913;DHT22;50720;54.324;18.558;2022-12-04T03:33:36;-0.50;99.90
42913;DHT22;50720;54.324;18.558;2022-12-04T03:36:13;-0.50;99.90
42913;DHT22;50720;54.324;18.558;2022-12-04T03:38:48;-0.40;99.90
42913;DHT22;50720;54.324;18.558;2022-12-04T03:41:27;-0.40;99.90
42913;DHT22;50720;54.324;18.558;2022-12-04T03:44:01;-0.40;99.90
42913;DHT22;50720;54.324;18.558;2022-12-04T03:46:39;-0.40;99.90
42913;DHT22;50720;54.324;18.558;2022-12-04T03:49:15;-0.40;99.90
42913;DHT22;50720;54.324;18.558;2022-12-04T03:51:51;-0.30;99.90
42913;DHT22;50720;54.324;18.558;2022-12-04T03:54:26;-0.30;99.90
42913;DHT22;50720;54.324;18.558;2022-12-04T03:57:01;-0.30;99.90
42913;DHT22;50720;54.324;18.558;2022-12-04T03:59:36;-0.30;99.90
42913;DHT22;50720;54.324;18.558;2022-12-04T04:02:13;-0.30;99.90
42913;DHT22;50720;54.324;18.558;2022-12-04T04:04:48;-0.40;99.90
42913;DHT22;50720;54.324;18.558;2022-12-04T04:07:23;-0.30;99.90
42913;DHT22;50720;54.324;18.558;2022-12-04T04:10:02;-0.30;99.90
42913;DHT22;50720;54.324;18.558;2022-12-04T04:12:37;-0.30;99.90
42913;DHT22;50720;54.324;18.558;2022-12-04T04:15:10;-0.20;99.90
42913;DHT22;50720;54.324;18.558;2022-12-04T04:18:00;-0.20;99.90
42913;DHT22;50720;54.324;18.558;2022-12-04T04:20:49;-0.20;99.90
42913;DHT22;50720;54.324;18.558;2022-12-04T04:23:42;-0.20;99.90
42913;DHT22;50720;54.324;18.558;2022-12-04T04:26:32;-0.20;99.90
42913;DHT22;50720;54.324;18.558;2022-12-04T04:29:03;-0.20;99.90
42913;DHT22;50720;54.324;18.558;2022-12-04T04:31:36;-0.10;99.90
42913;DHT22;50720;54.324;18.558;2022-12-04T04:34:15;-0.10;99.90
42913;DHT22;50720;54.324;18.558;2022-12-04T04:36:53;-0.10;99.90
42913;DHT22;50720;54.324;18.558;2022-12-04T04:39:29;-0.10;99.90
42913;DHT22;50720;54.324;18.558;2022-12-04T04:42:04;-0.10;99.90
42913;DHT22;50720;54.324;18.558;2022-12-04T04:44:41;-0.10;99.90
42913;DHT22;50720;54.324;18.558;2022-12-04T04:47:17;-0.10;99.90
42913;DHT22;50720;54.324;18.558;2022-12-04T04:49:50;0.00;99.90
42913;DHT22;50720;54.324;18.558;2022-12-04T04:52:23;0.00;99.90
42913;DHT22;50720;54.324;18.558;2022-12-04T04:54:52;0.00;99.90
42913;DHT22;50720;54.324;18.558;2022-12-04T04:57:26;0.00;99.90
42913;DHT22;50720;54.324;18.558;2022-12-04T04:59:56;0.00;99.90
42913;DHT22;50720;54.324;18.558;2022-12-04T05:02:27;0.00;99.90
42913;DHT22;50720;54.324;18.558;2022-12-04T05:04:58;0.10;99.90
42913;DHT22;50720;54.324;18.558;2022-12-04T05:07:27;0.10;99.90
42913;DHT22;50720;54.324;18.558;2022-12-04T05:09:57;0.00;99.90
42913;DHT22;50720;54.324;18.558;2022-12-04T05:12:26;0.10;99.90
42913;DHT22;50720;54.324;18.558;2022-12-04T05:14:56;0.10;99.90
42913;DHT22;50720;54.324;18.558;2022-12-04T05:17:26;0.10;99.90
42913;DHT22;50720;54.324;18.558;2022-12-04T05:19:57;0.10;99.90
42913;DHT22;50720;54.324;18.558;2022-12-04T05:22:29;0.10;99.90
42913;DHT22;50720;54.324;18.558;2022-12-04T05:24:59;0.10;99.90
42913;DHT22;50720;54.324;18.558;2022-12-04T05:27:30;0.10;99.90
42913;DHT22;50720;54.324;18.558;2022-12-04T05:30:00;0.10;99.90
42913;DHT22;50720;54.324;18.558;2022-12-04T05:32:29;0.10;99.90
42913;DHT22;50720;54.324;18.558;2022-12-04T05:35:01;0.10;99.90
42913;DHT22;50720;54.324;18.558;2022-12-04T05:37:38;0.20;99.90
42913;DHT22;50720;54.324;18.558;2022-12-04T05:40:09;0.20;99.90
42913;DHT22;50720;54.324;18.558;2022-12-04T05:42:39;0.20;99.90
42913;DHT22;50720;54.324;18.558;2022-12-04T05:45:09;0.20;99.90
42913;DHT22;50720;54.324;18.558;2022-12-04T05:47:39;0.20;99.90
42913;DHT22;50720;54.324;18.558;2022-12-04T05:50:12;0.20;99.90
42913;DHT22;50720;54.324;18.558;2022-12-04T05:52:41;0.20;99.90
42913;DHT22;50720;54.324;18.558;2022-12-04T05:55:11;0.30;99.90
42913;DHT22;50720;54.324;18.558;2022-12-04T05:57:41;0.30;99.90
42913;DHT22;50720;54.324;18.558;2022-12-04T06:00:12;0.30;99.90
42913;DHT22;50720;54.324;18.558;2022-12-04T06:02:41;0.20;99.90
42913;DHT22;50720;54.324;18.558;2022-12-04T06:05:14;0.20;99.90
42913;DHT22;50720;54.324;18.558;2022-12-04T06:07:43;0.30;99.90
42913;DHT22;50720;54.324;18.558;2022-12-04T06:10:13;0.20;99.90
42913;DHT22;50720;54.324;18.558;2022-12-04T06:12:42;0.20;99.90
42913;DHT22;50720;54.324;18.558;2022-12-04T06:15:12;0.20;99.90
42913;DHT22;50720;54.324;18.558;2022-12-04T06:17:42;0.20;99.90
42913;DHT22;50720;54.324;18.558;2022-12-04T06:20:14;0.20;99.90
42913;DHT22;50720;54.324;18.558;2022-12-04T06:22:43;0.30;99.90
42913;DHT22;50720;54.324;18.558;2022-12-04T06:25:13;0.30;99.90
42913;DHT22;50720;54.324;18.558;2022-12-04T06:27:42;0.30;99.90
42913;DHT22;50720;54.324;18.558;2022-12-04T06:30:13;0.30;99.90
42913;DHT22;50720;54.324;18.558;2022-12-04T06:32:42;0.40;99.90
42913;DHT22;50720;54.324;18.558;2022-12-04T06:35:13;0.40;99.90
42913;DHT22;50720;54.324;18.558;2022-12-04T06:37:43;0.20;99.90
42913;DHT22;50720;54.324;18.558;2022-12-04T06:40:13;0.30;99.90
42913;DHT22;50720;54.324;18.558;2022-12-04T06:42:42;0.30;99.90
42913;DHT22;50720;54.324;18.558;2022-12-04T06:45:12;0.30;99.90
42913;DHT22;50720;54.324;18.558;2022-12-04T06:47:41;0.30;99.90
42913;DHT22;50720;54.324;18.558;2022-12-04T06:50:13;0.30;99.90
42913;DHT22;50720;54.324;18.558;2022-12-04T06:52:42;0.30;99.90
42913;DHT22;50720;54.324;18.558;2022-12-04T06:55:12;0.30;99.90
42913;DHT22;50720;54.324;18.558;2022-12-04T06:57:41;0.40;99.90
42913;DHT22;50720;54.324;18.558;2022-12-04T07:00:12;0.40;99.90
42913;DHT22;50720;54.324;18.558;2022-12-04T07:02:41;0.30;99.90
42913;DHT22;50720;54.324;18.558;2022-12-04T07:05:12;0.40;99.90
42913;DHT22;50720;54.324;18.558;2022-12-04T07:07:42;0.40;99.90
42913;DHT22;50720;54.324;18.558;2022-12-04T07:10:12;0.50;99.90
42913;DHT22;50720;54.324;18.558;2022-12-04T07:12:42;0.40;99.90
42913;DHT22;50720;54.324;18.558;2022-12-04T07:15:12;0.40;99.90
42913;DHT22;50720;54.324;18.558;2022-12-04T07:17:41;0.40;99.90
42913;DHT22;50720;54.324;18.558;2022-12-04T07:20:13;0.50;99.90
42913;DHT22;50720;54.324;18.558;2022-12-04T07:22:43;0.40;99.90
42913;DHT22;50720;54.324;18.558;2022-12-04T07:25:13;0.50;99.90
42913;DHT22;50720;54.324;18.558;2022-12-04T07:27:42;0.50;99.90
42913;DHT22;50720;54.324;18.558;2022-12-04T07:30:13;0.40;99.90
42913;DHT22;50720;54.324;18.558;2022-12-04T07:32:42;0.50;99.90
42913;DHT22;50720;54.324;18.558;2022-12-04T07:35:14;0.50;99.90
42913;DHT22;50720;54.324;18.558;2022-12-04T07:37:43;0.50;99.90
42913;DHT22;50720;54.324;18.558;2022-12-04T07:40:14;0.60;99.90
42913;DHT22;50720;54.324;18.558;2022-12-04T07:42:43;0.50;99.90
42913;DHT22;50720;54.324;18.558;2022-12-04T07:45:13;0.50;99.90
42913;DHT22;50720;54.324;18.558;2022-12-04T07:47:42;0.60;99.90
42913;DHT22;50720;54.324;18.558;2022-12-04T07:50:13;0.50;99.90
42913;DHT22;50720;54.324;18.558;2022-12-04T07:52:43;0.50;99.90
42913;DHT22;50720;54.324;18.558;2022-12-04T07:55:12;0.60;99.90
42913;DHT22;50720;54.324;18.558;2022-12-04T07:57:49;0.50;99.90
42913;DHT22;50720;54.324;18.558;2022-12-04T08:00:19;0.50;99.90
42913;DHT22;50720;54.324;18.558;2022-12-04T08:02:49;0.50;99.90
42913;DHT22;50720;54.324;18.558;2022-12-04T08:05:20;0.50;99.90
42913;DHT22;50720;54.324;18.558;2022-12-04T08:07:50;0.50;99.90
42913;DHT22;50720;54.324;18.558;2022-12-04T08:10:20;0.50;99.90
42913;DHT22;50720;54.324;18.558;2022-12-04T08:12:49;0.50;99.90
42913;DHT22;50720;54.324;18.558;2022-12-04T08:15:19;0.50;99.90
42913;DHT22;50720;54.324;18.558;2022-12-04T08:17:48;0.60;99.90
42913;DHT22;50720;54.324;18.558;2022-12-04T08:20:20;0.60;99.90
42913;DHT22;50720;54.324;18.558;2022-12-04T08:22:49;0.60;99.90
42913;DHT22;50720;54.324;18.558;2022-12-04T08:25:20;0.60;99.90
42913;DHT22;50720;54.324;18.558;2022-12-04T08:27:49;0.60;99.90
42913;DHT22;50720;54.324;18.558;2022-12-04T08:30:19;0.70;99.90
42913;DHT22;50720;54.324;18.558;2022-12-04T08:32:48;0.70;99.90
42913;DHT22;50720;54.324;18.558;2022-12-04T08:35:20;0.70;99.90
42913;DHT22;50720;54.324;18.558;2022-12-04T08:37:50;0.70;99.90
42913;DHT22;50720;54.324;18.558;2022-12-04T08:40:19;0.60;99.90
42913;DHT22;50720;54.324;18.558;2022-12-04T08:42:50;0.70;99.90
42913;DHT22;50720;54.324;18.558;2022-12-04T08:45:19;0.60;99.90
42913;DHT22;50720;54.324;18.558;2022-12-04T08:47:49;0.60;99.90
42913;DHT22;50720;54.324;18.558;2022-12-04T08:50:21;0.60;99.90
42913;DHT22;50720;54.324;18.558;2022-12-04T08:52:50;0.60;99.90
42913;DHT22;50720;54.324;18.558;2022-12-04T08:55:21;0.60;99.90
42913;DHT22;50720;54.324;18.558;2022-12-04T08:57:52;0.60;99.90
42913;DHT22;50720;54.324;18.558;2022-12-04T09:00:22;0.70;99.90
42913;DHT22;50720;54.324;18.558;2022-12-04T09:02:53;0.60;99.90
42913;DHT22;50720;54.324;18.558;2022-12-04T09:05:25;0.60;99.90
42913;DHT22;50720;54.324;18.558;2022-12-04T09:07:54;0.60;99.90
42913;DHT22;50720;54.324;18.558;2022-12-04T09:10:24;0.60;99.90
42913;DHT22;50720;54.324;18.558;2022-12-04T09:12:54;0.70;99.90
42913;DHT22;50720;54.324;18.558;2022-12-04T09:15:24;0.60;99.90
42913;DHT22;50720;54.324;18.558;2022-12-04T09:17:54;0.70;99.90
42913;DHT22;50720;54.324;18.558;2022-12-04T09:20:25;0.60;99.90
42913;DHT22;50720;54.324;18.558;2022-12-04T09:22:54;0.70;99.90
42913;DHT22;50720;54.324;18.558;2022-12-04T09:25:34;0.70;99.90
42913;DHT22;50720;54.324;18.558;2022-12-04T09:28:04;0.70;99.90
42913;DHT22;50720;54.324;18.558;2022-12-04T09:30:34;0.70;99.90
42913;DHT22;50720;54.324;18.558;2022-12-04T09:33:04;0.80;99.90
42913;DHT22;50720;54.324;18.558;2022-12-04T09:35:37;0.80;99.90
42913;DHT22;50720;54.324;18.558;2022-12-04T09:38:06;0.70;99.90
42913;DHT22;50720;54.324;18.558;2022-12-04T09:40:41;0.80;99.90
42913;DHT22;50720;54.324;18.558;2022-12-04T09:43:21;0.80;99.90
42913;DHT22;50720;54.324;18.558;2022-12-04T09:45:59;0.80;99.90
42913;DHT22;50720;54.324;18.558;2022-12-04T09:48:32;0.80;99.90
42913;DHT22;50720;54.324;18.558;2022-12-04T09:51:06;0.80;99.90
42913;DHT22;50720;54.324;18.558;2022-12-04T09:53:47;0.80;99.90
42913;DHT22;50720;54.324;18.558;2022-12-04T09:56:20;0.80;99.90
42913;DHT22;50720;54.324;18.558;2022-12-04T09:58:54;0.80;99.90
42913;DHT22;50720;54.324;18.558;2022-12-04T10:01:27;0.80;99.90
42913;DHT22;50720;54.324;18.558;2022-12-04T10:03:59;0.80;99.90
42913;DHT22;50720;54.324;18.558;2022-12-04T10:06:40;0.80;99.90
42913;DHT22;50720;54.324;18.558;2022-12-04T10:09:19;0.80;99.90
42913;DHT22;50720;54.324;18.558;2022-12-04T10:11:58;0.80;99.90
42913;DHT22;50720;54.324;18.558;2022-12-04T10:14:54;0.80;99.90
42913;DHT22;50720;54.324;18.558;2022-12-04T10:17:44;0.80;99.90
42913;DHT22;50720;54.324;18.558;2022-12-04T10:20:29;0.80;99.90
42913;DHT22;50720;54.324;18.558;2022-12-04T10:23:09;0.80;99.90
42913;DHT22;50720;54.324;18.558;2022-12-04T10:25:41;0.80;99.90
42913;DHT22;50720;54.324;18.558;2022-12-04T10:28:19;0.80;99.90
42913;DHT22;50720;54.324;18.558;2022-12-04T10:30:52;0.80;99.90
42913;DHT22;50720;54.324;18.558;2022-12-04T10:33:36;0.80;99.90
42913;DHT22;50720;54.324;18.558;2022-12-04T10:36:10;0.80;99.90
42913;DHT22;50720;54.324;18.558;2022-12-04T10:38:47;0.80;99.90
42913;DHT22;50720;54.324;18.558;2022-12-04T10:41:23;0.90;99.90
42913;DHT22;50720;54.324;18.558;2022-12-04T10:43:53;0.90;99.90
42913;DHT22;50720;54.324;18.558;2022-12-04T10:46:24;1.00;99.90
42913;DHT22;50720;54.324;18.558;2022-12-04T10:48:58;1.00;99.90
42913;DHT22;50720;54.324;18.558;2022-12-04T10:51:33;0.90;99.90
42913;DHT22;50720;54.324;18.558;2022-12-04T10:54:17;0.90;99.90
42913;DHT22;50720;54.324;18.558;2022-12-04T10:56:52;0.90;99.90
42913;DHT22;50720;54.324;18.558;2022-12-04T10:59:22;0.90;99.90
42913;DHT22;50720;54.324;18.558;2022-12-04T11:02:01;1.00;99.90
42913;DHT22;50720;54.324;18.558;2022-12-04T11:04:34;1.00;99.90
42913;DHT22;50720;54.324;18.558;2022-12-04T11:07:05;1.00;99.90
42913;DHT22;50720;54.324;18.558;2022-12-04T11:09:38;1.10;99.90
42913;DHT22;50720;54.324;18.558;2022-12-04T11:12:17;1.00;99.90
42913;DHT22;50720;54.324;18.558;2022-12-04T11:14:47;1.00;99.90
42913;DHT22;50720;54.324;18.558;2022-12-04T11:17:18;1.10;99.90
42913;DHT22;50720;54.324;18.558;2022-12-04T11:19:58;1.10;99.90
42913;DHT22;50720;54.324;18.558;2022-12-04T11:22:28;1.00;99.90
42913;DHT22;50720;54.324;18.558;2022-12-04T11:24:59;1.00;99.90
42913;DHT22;50720;54.324;18.558;2022-12-04T11:27:31;1.00;99.90
42913;DHT22;50720;54.324;18.558;2022-12-04T11:30:08;1.00;99.90
42913;DHT22;50720;54.324;18.558;2022-12-04T11:32:38;1.00;99.90
42913;DHT22;50720;54.324;18.558;2022-12-04T11:35:14;1.00;99.90
42913;DHT22;50720;54.324;18.558;2022-12-04T11:37:53;1.00;99.90
42913;DHT22;50720;54.324;18.558;2022-12-04T11:40:26;1.00;99.90
42913;DHT22;50720;54.324;18.558;2022-12-04T11:43:02;0.90;99.90
42913;DHT22;50720;54.324;18.558;2022-12-04T11:45:33;0.90;99.90
42913;DHT22;50720;54.324;18.558;2022-12-04T11:48:11;1.00;99.90
42913;DHT22;50720;54.324;18.558;2022-12-04T11:50:48;0.90;99.90
42913;DHT22;50720;54.324;18.558;2022-12-04T11:53:23;1.00;99.90
42913;DHT22;50720;54.324;18.558;2022-12-04T11:56:14;0.90;99.90
42913;DHT22;50720;54.324;18.558;2022-12-04T11:58:55;1.00;99.90
42913;DHT22;50720;54.324;18.558;2022-12-04T12:01:37;0.90;99.90
42913;DHT22;50720;54.324;18.558;2022-12-04T12:04:47;1.00;99.90
42913;DHT22;50720;54.324;18.558;2022-12-04T12:07:28;0.90;99.90
42913;DHT22;50720;54.324;18.558;2022-12-04T12:10:03;1.00;99.90
42913;DHT22;50720;54.324;18.558;2022-12-04T12:12:44;0.90;99.90
42913;DHT22;50720;54.324;18.558;2022-12-04T12:15:24;0.90;99.90
42913;DHT22;50720;54.324;18.558;2022-12-04T12:18:09;0.90;99.90
42913;DHT22;50720;54.324;18.558;2022-12-04T12:20:48;0.90;99.90
42913;DHT22;50720;54.324;18.558;2022-12-04T12:23:31;0.90;99.90
42913;DHT22;50720;54.324;18.558;2022-12-04T12:26:08;0.90;99.90
42913;DHT22;50720;54.324;18.558;2022-12-04T12:28:53;0.80;99.90
42913;DHT22;50720;54.324;18.558;2022-12-04T12:31:39;0.90;99.90
42913;DHT22;50720;54.324;18.558;2022-12-04T12:34:17;0.90;99.90
42913;DHT22;50720;54.324;18.558;2022-12-04T12:36:50;0.90;99.90
42913;DHT22;50720;54.324;18.558;2022-12-04T12:39:38;0.90;99.90
42913;DHT22;50720;54.324;18.558;2022-12-04T12:42:16;0.90;99.90
42913;DHT22;50720;54.324;18.558;2022-12-04T12:44:52;0.90;99.90
42913;DHT22;50720;54.324;18.558;2022-12-04T12:47:28;0.90;99.90
42913;DHT22;50720;54.324;18.558;2022-12-04T12:50:03;0.90;99.90
42913;DHT22;50720;54.324;18.558;2022-12-04T12:52:38;0.80;99.90
42913;DHT22;50720;54.324;18.558;2022-12-04T12:55:15;0.80;99.90
42913;DHT22;50720;54.324;18.558;2022-12-04T12:57:48;0.80;99.90
42913;DHT22;50720;54.324;18.558;2022-12-04T13:00:23;0.80;99.90
42913;DHT22;50720;54.324;18.558;2022-12-04T13:02:59;0.80;99.90
42913;DHT22;50720;54.324;18.558;2022-12-04T13:05:33;0.90;99.90
42913;DHT22;50720;54.324;18.558;2022-12-04T13:08:09;0.80;99.90
42913;DHT22;50720;54.324;18.558;2022-12-04T13:10:47;0.80;99.90
42913;DHT22;50720;54.324;18.558;2022-12-04T13:13:22;0.80;99.90
42913;DHT22;50720;54.324;18.558;2022-12-04T13:15:57;0.80;99.90
42913;DHT22;50720;54.324;18.558;2022-12-04T13:18:29;0.80;99.90
42913;DHT22;50720;54.324;18.558;2022-12-04T13:21:04;0.80;99.90
42913;DHT22;50720;54.324;18.558;2022-12-04T13:23:44;0.80;99.90
42913;DHT22;50720;54.324;18.558;2022-12-04T13:26:28;0.80;99.90
42913;DHT22;50720;54.324;18.558;2022-12-04T13:29:10;0.80;99.90
42913;DHT22;50720;54.324;18.558;2022-12-04T13:31:49;0.80;99.90
42913;DHT22;50720;54.324;18.558;2022-12-04T13:34:48;0.80;99.90
42913;DHT22;50720;54.324;18.558;2022-12-04T13:37:30;0.90;99.90
42913;DHT22;50720;54.324;18.558;2022-12-04T13:40:27;0.90;99.90
42913;DHT22;50720;54.324;18.558;2022-12-04T13:43:14;0.80;99.90
42913;DHT22;50720;54.324;18.558;2022-12-04T13:45:44;0.90;99.90
42913;DHT22;50720;54.324;18.558;2022-12-04T13:48:27;0.90;99.90
42913;DHT22;50720;54.324;18.558;2022-12-04T13:51:22;0.80;99.90
42913;DHT22;50720;54.324;18.558;2022-12-04T13:56:50;0.70;99.90
42913;DHT22;50720;54.324;18.558;2022-12-04T13:59:23;0.70;99.90
42913;DHT22;50720;54.324;18.558;2022-12-04T14:02:02;0.70;99.90
42913;DHT22;50720;54.324;18.558;2022-12-04T14:04:45;0.70;99.90
42913;DHT22;50720;54.324;18.558;2022-12-04T14:07:24;0.70;99.90
42913;DHT22;50720;54.324;18.558;2022-12-04T14:09:56;0.70;99.90
42913;DHT22;50720;54.324;18.558;2022-12-04T14:12:28;0.80;99.90
42913;DHT22;50720;54.324;18.558;2022-12-04T14:15:01;0.80;99.90
42913;DHT22;50720;54.324;18.558;2022-12-04T14:17:34;0.80;99.90
42913;DHT22;50720;54.324;18.558;2022-12-04T14:20:07;0.80;99.90
42913;DHT22;50720;54.324;18.558;2022-12-04T14:22:50;0.80;99.90
42913;DHT22;50720;54.324;18.558;2022-12-04T14:25:34;0.80;99.90
42913;DHT22;50720;54.324;18.558;2022-12-04T14:28:23;0.80;99.90
42913;DHT22;50720;54.324;18.558;2022-12-04T14:34:00;0.80;99.90
42913;DHT22;50720;54.324;18.558;2022-12-04T14:36:35;0.80;99.90
42913;DHT22;50720;54.324;18.558;2022-12-04T14:39:15;0.80;99.90
42913;DHT22;50720;54.324;18.558;2022-12-04T14:41:48;0.80;99.90
42913;DHT22;50720;54.324;18.558;2022-12-04T14:44:26;0.70;99.90
42913;DHT22;50720;54.324;18.558;2022-12-04T14:46:58;0.70;99.90
42913;DHT22;50720;54.324;18.558;2022-12-04T14:49:43;0.70;99.90
42913;DHT22;50720;54.324;18.558;2022-12-04T14:52:21;0.70;99.90
42913;DHT22;50720;54.324;18.558;2022-12-04T14:54:58;0.70;99.90
42913;DHT22;50720;54.324;18.558;2022-12-04T14:57:44;0.70;99.90
42913;DHT22;50720;54.324;18.558;2022-12-04T15:00:16;0.80;99.90
42913;DHT22;50720;54.324;18.558;2022-12-04T15:02:48;0.70;99.90
42913;DHT22;50720;54.324;18.558;2022-12-04T15:05:20;0.70;99.90
42913;DHT22;50720;54.324;18.558;2022-12-04T15:07:57;0.70;99.90
42913;DHT22;50720;54.324;18.558;2022-12-04T15:10:29;0.70;99.90
42913;DHT22;50720;54.324;18.558;2022-12-04T15:13:24;0.70;99.90
42913;DHT22;50720;54.324;18.558;2022-12-04T15:15:55;0.70;99.90
42913;DHT22;50720;54.324;18.558;2022-12-04T15:18:25;0.70;99.90
42913;DHT22;50720;54.324;18.558;2022-12-04T15:20:56;0.70;99.90
42913;DHT22;50720;54.324;18.558;2022-12-04T15:23:34;0.70;99.90
42913;DHT22;50720;54.324;18.558;2022-12-04T15:26:05;0.70;99.90
42913;DHT22;50720;54.324;18.558;2022-12-04T15:28:41;0.70;99.90
42913;DHT22;50720;54.324;18.558;2022-12-04T15:31:14;0.70;99.90
42913;DHT22;50720;54.324;18.558;2022-12-04T15:33:45;0.70;99.90
42913;DHT22;50720;54.324;18.558;2022-12-04T15:36:19;0.80;99.90
42913;DHT22;50720;54.324;18.558;2022-12-04T15:38:56;0.90;99.90
42913;DHT22;50720;54.324;18.558;2022-12-04T15:41:30;0.80;99.90
42913;DHT22;50720;54.324;18.558;2022-12-04T15:44:02;0.80;99.90
42913;DHT22;50720;54.324;18.558;2022-12-04T15:46:49;0.70;99.90
42913;DHT22;50720;54.324;18.558;2022-12-04T15:49:25;0.80;99.90
42913;DHT22;50720;54.324;18.558;2022-12-04T15:52:04;0.80;99.90
42913;DHT22;50720;54.324;18.558;2022-12-04T15:54:36;0.80;99.90
42913;DHT22;50720;54.324;18.558;2022-12-04T15:57:17;0.70;99.90
42913;DHT22;50720;54.324;18.558;2022-12-04T15:59:49;0.80;99.90
42913;DHT22;50720;54.324;18.558;2022-12-04T16:02:24;0.80;99.90
42913;DHT22;50720;54.324;18.558;2022-12-04T16:04:54;0.80;99.90
42913;DHT22;50720;54.324;18.558;2022-12-04T16:07:25;0.80;99.90
42913;DHT22;50720;54.324;18.558;2022-12-04T16:09:58;0.90;99.90
42913;DHT22;50720;54.324;18.558;2022-12-04T16:12:31;0.80;99.90
42913;DHT22;50720;54.324;18.558;2022-12-04T16:15:01;0.80;99.90
42913;DHT22;50720;54.324;18.558;2022-12-04T16:17:32;0.80;99.90